TAF and METAR

Decoding for American and Canadian METARs and TAFs is not fully implemented.

Could not understand the following METAR

PAFB 242358Z 25011G17KT 10SM SCT050 SCT200 23/05 A2997 RMK AO2A SLP150 T02310051 10231 20157 57007
No TAF available for Wainwright Army Airfield